Time;durP1;ratioP1;P1;durP2;ratioP2;P2;SDS_P1;SDS_P2;PMS_P1;PMS_P2;Temp;Humidity;BMP_temperature;BMP_pressure;BME280_temperature;BME280_humidity;BME280_pressure;Samples;Min_cycle;Max_cycle;Signal;HPM_P1;HPM_P2
2023/07/06 00:01:45;;;;;;;9.40;7.40;;;;;;;22.14;100.00;99618.90;108184;1255;61805;-58
2023/07/06 00:04:14;;;;;;;8.90;7.30;;;;;;;22.12;100.00;99628.71;108185;1253;60223;-57
2023/07/06 00:06:42;;;;;;;9.40;7.90;;;;;;;22.11;100.00;99629.05;108305;1252;73748;-57
2023/07/06 00:09:10;;;;;;;;;;;;;;;22.11;100.00;99630.98;108350;1252;69154;-58
2023/07/06 00:11:38;;;;;;;;;;;;;;;22.11;100.00;99632.04;108224;1254;72496;-57
2023/07/06 00:14:07;;;;;;;9.60;7.50;;;;;;;22.12;100.00;99633.96;108339;1252;61482;-58
2023/07/06 00:16:35;;;;;;;9.10;7.70;;;;;;;22.16;100.00;99634.49;108339;1252;60654;-57
2023/07/06 00:19:03;;;;;;;9.60;7.30;;;;;;;22.19;100.00;99632.99;108248;1255;73615;-58
2023/07/06 00:21:31;;;;;;;8.60;7.60;;;;;;;22.21;100.00;99629.90;108439;1253;69001;-57
2023/07/06 00:24:00;;;;;;;11.30;7.90;;;;;;;22.24;100.00;99629.85;108233;1253;73414;-58
2023/07/06 00:26:28;;;;;;;12.10;8.40;;;;;;;22.27;100.00;99626.66;108445;1253;61365;-58
2023/07/06 00:28:55;;;;;;;8.50;7.10;;;;;;;22.30;100.00;99625.39;108331;1253;58932;-57
2023/07/06 00:31:40;;;;;;;11.70;7.10;;;;;;;22.31;100.00;99629.36;108296;1252;74490;-58
2023/07/06 00:34:09;;;;;;;12.00;7.20;;;;;;;22.33;100.00;99629.20;108396;1252;69252;-58
2023/07/06 00:36:37;;;;;;;8.20;7.40;;;;;;;22.33;100.00;99629.14;108250;1254;72147;-58
2023/07/06 00:39:05;;;;;;;8.60;7.40;;;;;;;22.34;100.00;99629.46;108253;1253;60644;-57
2023/07/06 00:41:33;;;;;;;9.00;8.10;;;;;;;22.36;100.00;99632.88;108309;1253;59693;-57
2023/07/06 00:44:01;;;;;;;12.60;7.60;;;;;;;22.38;100.00;99624.86;108247;1253;74068;-57
2023/07/06 00:46:39;;;;;;;9.40;8.00;;;;;;;22.43;100.00;99622.94;108260;1253;69156;-58
2023/07/06 00:49:11;;;;;;;9.30;7.60;;;;;;;22.45;100.00;99625.92;108249;1252;73320;-57
2023/07/06 00:51:39;;;;;;;12.70;7.60;;;;;;;22.45;100.00;99628.95;108231;1254;62410;-57
2023/07/06 00:54:09;;;;;;;8.30;7.50;;;;;;;22.44;100.00;99628.38;107967;1253;59785;-57
2023/07/06 00:56:41;;;;;;;9.20;8.10;;;;;;;22.42;100.00;99627.13;108019;1252;72698;-57
2023/07/06 00:59:11;;;;;;;10.80;8.30;;;;;;;22.39;100.00;99623.33;108304;1253;69780;-57
2023/07/06 01:01:43;;;;;;;9.50;8.20;;;;;;;22.38;100.00;99624.48;108326;1252;72351;-58
2023/07/06 01:04:12;;;;;;;10.20;7.40;;;;;;;22.37;100.00;99629.36;108197;1255;60508;-57
2023/07/06 01:06:47;;;;;;;9.80;8.80;;;;;;;22.35;100.00;99626.83;108520;1251;59885;-57
2023/07/06 01:09:15;;;;;;;11.00;8.00;;;;;;;22.34;100.00;99629.09;108036;1253;316610;-57
2023/07/06 01:13:36;;;;;;;8.70;7.80;;;;;;;22.07;100.00;99624.42;101349;1294;601471;-57
2023/07/06 01:16:04;;;;;;;15.40;8.50;;;;;;;22.26;100.00;99624.98;103452;1267;61827;-61
2023/07/06 01:18:41;;;;;;;8.90;8.00;;;;;;;22.25;100.00;99627.80;103548;1271;59749;-57
2023/07/06 01:21:14;;;;;;;11.20;8.60;;;;;;;22.20;100.00;99626.60;103677;1266;72518;-56
2023/07/06 01:24:08;;;;;;;10.20;7.80;;;;;;;22.20;100.00;99620.34;103304;1267;69212;-59
2023/07/06 01:26:49;;;;;;;10.50;7.60;;;;;;;22.18;100.00;99622.55;103362;1263;288845;-56
2023/07/06 01:29:36;;;;;;;9.00;8.10;;;;;;;22.11;100.00;99624.41;103885;1280;61562;-55
2023/07/06 01:32:05;;;;;;;;;;;;;;;22.07;100.00;99627.63;104093;1265;59304;-56
2023/07/06 01:34:44;;;;;;;9.80;8.40;;;;;;;22.03;100.00;99627.98;103892;1267;72754;-59
2023/07/06 01:37:12;;;;;;;10.40;8.00;;;;;;;22.01;100.00;99626.52;103919;1262;70056;-56
2023/07/06 01:39:42;;;;;;;9.60;8.70;;;;;;;21.93;100.00;99622.66;104411;1256;71721;-57
2023/07/06 01:42:10;;;;;;;14.10;8.00;;;;;;;21.91;100.00;99626.02;107534;1257;61863;-58
2023/07/06 01:44:37;;;;;;;;;;;;;;;21.88;100.00;99630.40;104870;1259;59730;-57
2023/07/06 01:47:05;;;;;;;10.00;7.90;;;;;;;21.85;100.00;99632.68;104083;1256;73378;-57
2023/07/06 01:49:33;;;;;;;9.30;8.40;;;;;;;21.85;100.00;99636.04;104430;1257;69212;-56
2023/07/06 01:52:03;;;;;;;10.40;8.60;;;;;;;21.86;100.00;99639.56;104171;1257;73353;-57
2023/07/06 01:54:35;;;;;;;9.20;8.30;;;;;;;21.86;100.00;99637.23;104156;1258;61486;-59
2023/07/06 01:57:05;;;;;;;10.90;8.50;;;;;;;21.88;100.00;99633.61;104053;1271;60127;-58
2023/07/06 01:59:35;;;;;;;10.90;8.70;;;;;;;21.91;100.00;99632.11;107306;1256;73449;-57
2023/07/06 02:02:04;;;;;;;10.50;8.40;;;;;;;21.90;100.00;99631.98;103968;1271;69207;-58
2023/07/06 02:04:33;;;;;;;11.70;9.00;;;;;;;21.89;100.00;99627.81;104265;1262;72354;-58
2023/07/06 02:07:01;;;;;;;9.40;8.50;;;;;;;21.87;100.00;99629.98;104192;1266;61515;-58
2023/07/06 02:09:29;;;;;;;10.30;9.20;;;;;;;21.85;100.00;99627.30;104581;1262;60101;-58
2023/07/06 02:11:57;;;;;;;;;;;;;;;21.83;100.00;99624.27;104080;1257;72953;-57
2023/07/06 02:14:25;;;;;;;9.50;8.40;;;;;;;21.87;100.00;99623.55;104152;1267;69661;-58
2023/07/06 02:16:54;;;;;;;9.40;8.20;;;;;;;21.86;100.00;99623.30;104349;1264;72463;-57
2023/07/06 02:19:22;;;;;;;9.70;8.70;;;;;;;21.86;100.00;99621.73;104234;1257;61526;-57
2023/07/06 02:21:50;;;;;;;10.60;8.50;;;;;;;21.85;100.00;99618.85;104093;1263;59798;-57
2023/07/06 02:24:17;;;;;;;13.80;8.80;;;;;;;21.85;100.00;99611.22;104192;1273;72709;-59
2023/07/06 02:26:45;;;;;;;;;;;;;;;21.85;100.00;99609.48;104074;1263;69651;-57
2023/07/06 02:29:14;;;;;;;8.90;8.10;;;;;;;21.85;100.00;99613.19;105337;1257;72351;-58
2023/07/06 02:31:42;;;;;;;12.60;8.50;;;;;;;21.86;100.00;99616.11;104056;1263;61515;-56
2023/07/06 02:34:10;;;;;;;9.40;8.50;;;;;;;21.89;100.00;99612.80;104018;1260;59881;-58
2023/07/06 02:36:38;;;;;;;10.20;9.20;;;;;;;21.92;100.00;99610.77;104429;1257;72855;-57
2023/07/06 02:39:06;;;;;;;12.00;8.80;;;;;;;21.95;100.00;99606.59;104166;1269;70148;-57
2023/07/06 02:41:34;;;;;;;;;;;;;;;21.97;100.00;99603.34;104189;1263;72526;-57
2023/07/06 02:44:02;;;;;;;10.20;9.10;;;;;;;21.98;100.00;99608.21;104196;1262;61934;-58
2023/07/06 02:46:29;;;;;;;;;;;;;;;22.01;100.00;99609.12;104369;1254;59697;-56
2023/07/06 02:48:57;;;;;;;11.10;9.20;;;;;;;22.02;100.00;99612.51;104494;1258;73678;-57
2023/07/06 02:51:25;;;;;;;10.30;8.90;;;;;;;22.04;100.00;99611.99;104466;1257;69051;-57
2023/07/06 02:53:53;;;;;;;;;;;;;;;22.05;100.00;99612.92;104526;1269;72466;-57
2023/07/06 02:56:20;;;;;;;;;;;;;;;22.08;100.00;99610.90;104385;1260;61760;-58
2023/07/06 02:58:48;;;;;;;10.90;8.10;;;;;;;22.08;100.00;99609.66;105770;1252;60403;-58
2023/07/06 03:01:18;;;;;;;10.20;8.50;;;;;;;22.10;100.00;99606.13;104712;1263;72977;-57
2023/07/06 03:03:46;;;;;;;9.80;8.90;;;;;;;22.13;100.00;99602.76;104510;1257;68405;-57
2023/07/06 03:06:17;;;;;;;10.20;8.80;;;;;;;22.16;100.00;99603.02;104778;1261;72529;-58
2023/07/06 03:08:46;;;;;;;9.40;8.20;;;;;;;22.20;100.00;99605.91;104738;1255;61864;-58
2023/07/06 03:11:17;;;;;;;11.70;9.50;;;;;;;22.23;100.00;99608.13;104526;1253;60691;-58
2023/07/06 03:13:44;;;;;;;8.70;8.00;;;;;;;22.30;100.00;99610.23;104502;1253;71793;-58
2023/07/06 03:16:14;;;;;;;9.90;8.40;;;;;;;22.35;100.00;99611.66;104715;1258;70010;-58
2023/07/06 03:18:46;;;;;;;9.90;8.40;;;;;;;22.38;100.00;99609.13;104366;1269;71540;-58
2023/07/06 03:21:14;;;;;;;9.80;8.60;;;;;;;22.39;100.00;99607.06;104450;1258;61443;-58
2023/07/06 03:23:42;;;;;;;10.30;9.10;;;;;;;22.43;100.00;99601.52;104381;1267;59998;-58
2023/07/06 03:26:09;;;;;;;10.80;8.50;;;;;;;22.42;100.00;99602.50;104333;1270;73729;-59
2023/07/06 03:28:37;;;;;;;10.70;8.40;;;;;;;22.43;100.00;99595.41;104399;1270;69056;-58
2023/07/06 03:31:05;;;;;;;9.40;8.50;;;;;;;22.43;100.00;99600.27;104343;1270;72632;-58
2023/07/06 03:33:32;;;;;;;;;;;;;;;22.45;100.00;99594.31;104519;1256;61043;-57
2023/07/06 03:36:00;;;;;;;9.60;8.60;;;;;;;22.45;100.00;99592.17;104464;1254;59698;-59
2023/07/06 03:38:29;;;;;;;10.10;8.90;;;;;;;22.46;100.00;99585.35;104857;1251;73258;-58
2023/07/06 03:40:58;;;;;;;8.60;7.80;;;;;;;22.48;100.00;99582.42;104479;1275;69180;-58
2023/07/06 03:43:26;;;;;;;12.40;9.00;;;;;;;22.55;100.00;99584.81;106033;1253;72930;-58
2023/07/06 03:45:53;;;;;;;9.50;8.70;;;;;;;22.59;100.00;99584.48;107315;1251;61378;-59
2023/07/06 03:48:22;;;;;;;10.50;8.30;;;;;;;22.60;100.00;99581.57;105388;1255;59768;-59
2023/07/06 03:50:52;;;;;;;10.20;8.80;;;;;;;22.60;100.00;99581.17;104970;1251;73357;-60
2023/07/06 03:53:21;;;;;;;9.90;8.70;;;;;;;22.61;100.00;99573.73;104879;1251;69980;-58
2023/07/06 03:55:52;;;;;;;10.80;8.70;;;;;;;22.62;100.00;99567.27;104656;1257;73508;-56
2023/07/06 03:58:21;;;;;;;10.70;8.70;;;;;;;22.60;100.00;99561.84;104567;1255;61520;-57
2023/07/06 04:00:48;;;;;;;10.70;9.40;;;;;;;22.62;100.00;99550.25;104463;1251;60325;-57
2023/07/06 04:03:16;;;;;;;;;;;;;;;22.69;100.00;99548.88;104340;1267;73714;-57
2023/07/06 04:05:47;;;;;;;11.10;9.50;;;;;;;22.73;100.00;99546.47;104437;1258;69161;-59
2023/07/06 04:08:18;;;;;;;10.60;8.80;;;;;;;22.76;100.00;99536.98;104438;1269;72302;-56
2023/07/06 04:10:46;;;;;;;13.50;9.10;;;;;;;22.79;100.00;99530.56;104425;1256;61794;-56
2023/07/06 04:13:14;;;;;;;12.00;9.40;;;;;;;22.82;100.00;99527.23;104470;1255;59740;-57
2023/07/06 04:15:45;;;;;;;9.80;8.90;;;;;;;22.87;100.00;99526.08;104460;1262;73266;-58
2023/07/06 04:18:15;;;;;;;11.20;9.90;;;;;;;22.92;100.00;99532.61;104573;1257;69188;-56
2023/07/06 04:20:43;;;;;;;13.10;9.20;;;;;;;23.02;100.00;99532.35;104463;1261;72889;-56
2023/07/06 04:23:10;;;;;;;;;;;;;;;23.04;100.00;99527.33;104439;1263;61403;-57
2023/07/06 04:25:38;;;;;;;9.70;8.70;;;;;;;23.09;100.00;99530.58;104469;1255;60018;-56
2023/07/06 04:28:11;;;;;;;11.70;9.30;;;;;;;23.15;100.00;99530.01;104618;1258;72844;-55
2023/07/06 04:30:40;;;;;;;10.90;9.80;;;;;;;23.20;100.00;99530.95;104385;1264;69224;-55
2023/07/06 04:33:13;;;;;;;14.30;9.10;;;;;;;23.25;100.00;99530.63;104377;1257;72421;-55
2023/07/06 04:35:41;;;;;;;10.50;9.40;;;;;;;23.30;100.00;99533.17;104400;1264;62058;-55
2023/07/06 04:38:10;;;;;;;;;;;;;;;23.34;100.00;99535.13;104360;1257;59693;-56
2023/07/06 04:40:38;;;;;;;39.60;14.10;;;;;;;23.36;100.00;99539.93;104484;1255;73282;-56
2023/07/06 04:43:06;;;;;;;25.60;11.90;;;;;;;23.41;100.00;99539.08;104494;1255;69146;-58
2023/07/06 04:45:34;;;;;;;19.00;9.80;;;;;;;23.46;100.00;99539.52;104526;1257;71380;-57
2023/07/06 04:48:02;;;;;;;;;;;;;;;23.48;100.00;99542.50;104519;1253;61415;-55
2023/07/06 04:50:31;;;;;;;13.30;10.30;;;;;;;23.49;100.00;99546.16;104559;1253;59711;-56
2023/07/06 04:53:00;;;;;;;14.00;8.80;;;;;;;23.51;100.00;99544.77;104436;1262;73071;-56
2023/07/06 04:55:29;;;;;;;15.10;9.80;;;;;;;23.55;100.00;99538.21;104539;1253;70054;-55
2023/07/06 04:57:58;;;;;;;25.20;11.90;;;;;;;23.64;100.00;99535.80;107341;1252;73392;-57
2023/07/06 05:00:29;;;;;;;14.70;10.50;;;;;;;23.63;100.00;99537.14;106702;1253;60712;-56
2023/07/06 05:02:58;;;;;;;19.70;10.00;;;;;;;23.67;100.00;99543.29;104493;1256;59830;-55
2023/07/06 05:05:28;;;;;;;13.00;10.00;;;;;;;23.74;100.00;99539.48;104633;1253;72889;-56
2023/07/06 05:07:56;;;;;;;18.90;11.50;;;;;;;23.74;100.00;99538.16;104975;1253;70366;-55
2023/07/06 05:10:25;;;;;;;19.20;11.80;;;;;;;23.78;100.00;99540.36;104966;1259;73367;-56
2023/07/06 05:12:55;;;;;;;13.70;11.10;;;;;;;23.92;100.00;99536.38;104371;1259;61498;-55
2023/07/06 05:15:23;;;;;;;12.80;9.40;;;;;;;24.08;100.00;99533.86;104375;1254;60660;-55
2023/07/06 05:17:53;;;;;;;13.90;9.90;;;;;;;24.24;100.00;99535.90;104341;1257;72803;-55
2023/07/06 05:20:22;;;;;;;12.20;9.50;;;;;;;24.30;100.00;99538.84;104299;1257;69309;-55
2023/07/06 05:22:50;;;;;;;16.70;9.80;;;;;;;24.43;100.00;99536.79;104433;1269;72901;-55
2023/07/06 05:25:18;;;;;;;13.00;9.50;;;;;;;24.52;100.00;99537.33;104360;1259;60539;-57
2023/07/06 05:27:47;;;;;;;13.90;10.10;;;;;;;24.59;100.00;99535.73;104260;1257;59830;-55
2023/07/06 05:30:15;;;;;;;11.10;9.70;;;;;;;24.65;100.00;99530.73;104402;1258;73671;-56
2023/07/06 05:32:48;;;;;;;21.50;11.70;;;;;;;24.75;100.00;99531.96;104343;1271;69018;-57
2023/07/06 05:35:18;;;;;;;19.40;10.90;;;;;;;24.82;100.00;99529.41;104446;1256;71782;-57
2023/07/06 05:37:46;;;;;;;14.50;9.80;;;;;;;24.87;100.00;99531.59;104588;1252;62249;-57
2023/07/06 05:40:14;;;;;;;12.80;9.90;;;;;;;25.01;100.00;99530.07;104644;1263;60591;-56
2023/07/06 05:42:42;;;;;;;13.80;9.50;;;;;;;25.13;100.00;99533.31;104678;1254;73705;-55
2023/07/06 05:45:10;;;;;;;11.80;9.40;;;;;;;25.22;100.00;99527.55;104511;1259;68179;-55
2023/07/06 05:47:37;;;;;;;11.70;9.00;;;;;;;25.36;100.00;99526.80;108366;1253;72890;-56
2023/07/06 05:50:05;;;;;;;;;;;;;;;25.48;100.00;99524.61;107595;1253;62440;-56
2023/07/06 05:52:33;;;;;;;11.60;8.20;;;;;;;25.62;100.00;99525.42;105391;1254;60722;-57
2023/07/06 05:55:00;;;;;;;9.30;8.30;;;;;;;25.73;100.00;99524.08;104549;1253;74544;-56
2023/07/06 05:57:28;;;;;;;;;;;;;;;25.87;100.00;99518.48;104889;1253;69237;-56
2023/07/06 05:59:56;;;;;;;10.30;8.10;;;;;;;25.99;100.00;99517.30;104757;1254;72449;-56
2023/07/06 06:02:23;;;;;;;8.20;7.50;;;;;;;26.08;100.00;99517.06;104715;1253;62396;-58
2023/07/06 06:04:52;;;;;;;8.00;7.30;;;;;;;26.22;100.00;99517.87;104645;1254;60466;-55
2023/07/06 06:07:20;;;;;;;8.30;7.40;;;;;;;26.32;100.00;99508.27;105296;1247;73539;-56
2023/07/06 06:09:48;;;;;;;8.80;7.90;;;;;;;26.41;100.00;99507.99;105468;1248;69162;-55
2023/07/06 06:12:18;;;;;;;9.40;7.30;;;;;;;26.51;100.00;99510.85;105315;1248;72354;-56
2023/07/06 06:14:47;;;;;;;8.30;7.50;;;;;;;26.60;100.00;99510.95;105235;1252;62511;-56
2023/07/06 06:17:15;;;;;;;9.60;7.80;;;;;;;26.72;100.00;99513.66;105326;1251;60654;-55
2023/07/06 06:19:45;;;;;;;11.10;7.70;;;;;;;26.83;100.00;99516.52;105209;1252;74488;-55
2023/07/06 06:22:15;;;;;;;8.90;8.00;;;;;;;26.93;100.00;99512.88;105158;1250;69571;-55
2023/07/06 06:24:44;;;;;;;9.40;7.80;;;;;;;27.07;100.00;99514.88;105147;1260;73378;-57
2023/07/06 06:27:14;;;;;;;9.90;7.50;;;;;;;27.24;100.00;99513.52;105311;1250;61455;-55
2023/07/06 06:29:42;;;;;;;9.40;7.90;;;;;;;27.40;100.00;99509.70;105171;1252;60101;-56
2023/07/06 06:32:11;;;;;;;9.10;7.60;;;;;;;27.52;100.00;99507.67;105046;1252;73694;-57
2023/07/06 06:34:39;;;;;;;8.00;7.30;;;;;;;27.69;100.00;99508.42;105118;1264;69486;-56
2023/07/06 06:37:09;;;;;;;7.60;6.90;;;;;;;27.80;100.00;99502.19;105140;1260;72426;-56
2023/07/06 06:39:38;;;;;;;7.00;6.40;;;;;;;27.88;100.00;99506.02;105198;1250;61525;-55
2023/07/06 06:42:07;;;;;;;7.90;7.20;;;;;;;28.04;100.00;99504.52;105098;1253;60668;-57
2023/07/06 06:44:35;;;;;;;9.60;7.10;;;;;;;28.19;100.00;99506.58;105127;1252;74175;-57
2023/07/06 06:47:04;;;;;;;8.60;7.30;;;;;;;28.29;100.00;99506.41;105465;1250;71201;-55
2023/07/06 06:49:35;;;;;;;7.60;7.00;;;;;;;28.40;100.00;99510.56;105217;1249;72393;-56
2023/07/06 06:52:04;;;;;;;8.20;7.00;;;;;;;28.52;100.00;99513.31;105084;1252;61422;-56
2023/07/06 06:54:33;;;;;;;9.70;7.40;;;;;;;28.62;100.00;99514.39;105218;1247;60526;-55
2023/07/06 06:57:01;;;;;;;7.80;7.20;;;;;;;28.70;100.00;99514.75;105024;1252;73665;-56
2023/07/06 06:59:32;;;;;;;8.50;7.70;;;;;;;28.77;100.00;99513.52;106938;1247;69163;-56
2023/07/06 07:02:02;;;;;;;9.10;7.30;;;;;;;28.89;100.00;99511.72;107026;1248;72487;-57
2023/07/06 07:04:31;;;;;;;9.00;7.80;;;;;;;29.01;100.00;99512.80;105030;1251;61475;-56
2023/07/06 07:07:03;;;;;;;8.80;7.30;;;;;;;29.06;100.00;99512.66;105316;1247;59921;-56
2023/07/06 07:09:33;;;;;;;9.00;8.20;;;;;;;29.08;100.00;99513.02;105011;1251;73678;-56
2023/07/06 07:12:01;;;;;;;7.70;7.00;;;;;;;29.09;100.00;99512.83;104855;1254;69405;-56
2023/07/06 07:14:29;;;;;;;7.30;6.60;;;;;;;29.10;100.00;99506.75;105219;1248;71528;-56
2023/07/06 07:16:57;;;;;;;7.40;6.70;;;;;;;29.14;100.00;99511.40;105303;1248;61848;-56
2023/07/06 07:19:25;;;;;;;;;;;;;;;29.18;100.00;99512.92;105242;1250;60494;-55
2023/07/06 07:21:53;;;;;;;6.90;6.30;;;;;;;29.22;100.00;99514.35;105219;1248;74041;-55
2023/07/06 07:24:21;;;;;;;7.10;6.20;;;;;;;29.29;100.00;99506.26;105183;1253;69003;-56
2023/07/06 07:26:49;;;;;;;;;;;;;;;29.36;100.00;99504.30;105190;1251;72874;-56
2023/07/06 07:29:17;;;;;;;6.70;6.00;;;;;;;29.39;100.00;99508.09;105281;1247;61398;-56
2023/07/06 07:31:47;;;;;;;9.00;6.60;;;;;;;29.41;100.00;99507.38;105324;1250;60706;-56
2023/07/06 07:34:15;;;;;;;6.70;6.10;;;;;;;29.35;100.00;99509.02;105572;1253;73964;-56
2023/07/06 07:36:43;;;;;;;7.40;6.60;;;;;;;29.33;100.00;99511.21;105201;1247;68200;-56
2023/07/06 07:39:11;;;;;;;6.80;6.20;;;;;;;29.40;100.00;99516.34;105343;1253;73388;-57
2023/07/06 07:41:42;;;;;;;6.30;5.80;;;;;;;29.45;100.00;99513.98;105452;1252;60897;-57
2023/07/06 07:44:10;;;;;;;6.50;6.00;;;;;;;29.52;100.00;99517.26;105300;1253;60535;-56
2023/07/06 07:46:38;;;;;;;;;;;;;;;29.60;100.00;99516.19;105077;1248;73480;-57
2023/07/06 07:49:07;;;;;;;7.10;6.50;;;;;;;29.65;100.00;99513.65;105387;1246;69825;-57
2023/07/06 07:51:34;;;;;;;7.20;6.60;;;;;;;29.73;100.00;99513.16;108731;1247;72419;-57
2023/07/06 07:54:02;;;;;;;;;;;;;;;29.78;100.00;99514.35;106933;1250;60555;-60
2023/07/06 07:56:32;;;;;;;6.60;6.00;;;;;;;29.83;100.00;99510.23;105283;1257;59996;-57
2023/07/06 07:59:00;;;;;;;7.80;6.50;;;;;;;29.86;100.00;99511.14;105488;1247;73692;-56
2023/07/06 08:01:28;;;;;;;7.40;6.30;;;;;;;29.91;100.00;99509.05;105272;1253;69180;-57
2023/07/06 08:31:56;;;;;;;6.50;5.80;;;;;;;31.13;100.00;99502.61;101032;1292;601458;-57
2023/07/06 08:34:26;;;;;;;6.20;5.70;;;;;;;31.18;100.00;99501.88;103404;1272;60947;-58
2023/07/06 08:36:55;;;;;;;6.60;6.00;;;;;;;31.24;100.00;99495.84;103302;1272;59904;-56
2023/07/06 08:39:25;;;;;;;6.40;5.80;;;;;;;31.32;100.00;99492.07;104172;1270;72417;-58
2023/07/06 08:41:53;;;;;;;6.30;5.90;;;;;;;31.38;100.00;99487.98;103860;1265;69663;-57
2023/07/06 08:44:25;;;;;;;8.40;5.70;;;;;;;31.41;100.00;99487.95;103805;1264;312358;-57
2023/07/06 08:46:55;;;;;;;6.30;5.90;;;;;;;31.45;100.00;99489.55;103927;1260;59789;-57
2023/07/06 08:49:32;;;;;;;5.80;5.30;;;;;;;31.50;100.00;99485.13;104254;1266;59820;-57
2023/07/06 08:52:03;;;;;;;5.40;4.90;;;;;;;31.52;100.00;99485.01;104252;1260;72864;-57
2023/07/06 08:54:33;;;;;;;6.10;5.60;;;;;;;31.53;100.00;99480.70;104232;1274;70038;-56
2023/07/06 08:57:02;;;;;;;6.80;6.10;;;;;;;31.59;100.00;99481.66;104312;1261;72458;-56
2023/07/06 08:59:39;;;;;;;5.70;5.20;;;;;;;31.66;100.00;99480.17;107071;1260;59843;-57
2023/07/06 09:02:27;;;;;;;5.30;4.90;;;;;;;31.71;97.64;99476.73;106850;1264;59354;-56
2023/07/06 09:04:56;;;;;;;6.20;5.60;;;;;;;31.73;99.44;99475.54;104642;1263;73813;-56
2023/07/06 09:07:34;;;;;;;6.30;5.70;;;;;;;31.77;100.00;99473.45;105051;1260;70206;-56
2023/07/06 09:10:20;;;;;;;6.20;5.60;;;;;;;31.78;98.27;99466.55;104524;1263;73322;-55
2023/07/06 09:12:56;;;;;;;6.10;5.40;;;;;;;31.78;97.01;99462.25;104216;1263;59852;-56
2023/07/06 09:15:29;;;;;;;5.90;5.50;;;;;;;31.79;97.57;99460.77;104367;1260;63198;-57
2023/07/06 09:18:02;;;;;;;6.00;5.50;;;;;;;31.86;96.29;99460.66;104448;1269;72771;-57
2023/07/06 09:20:32;;;;;;;6.00;5.60;;;;;;;31.93;95.29;99460.96;104508;1263;69135;-57
2023/07/06 09:23:00;;;;;;;7.10;5.10;;;;;;;31.93;91.43;99459.66;104234;1263;72699;-56
2023/07/06 09:25:37;;;;;;;6.00;5.50;;;;;;;31.88;95.82;99466.09;104568;1260;59816;-57
2023/07/06 09:28:07;;;;;;;6.70;6.20;;;;;;;31.93;93.61;99463.30;104271;1260;60896;-57
2023/07/06 09:30:37;;;;;;;6.40;5.90;;;;;;;31.97;93.36;99459.41;104337;1266;72190;-58
2023/07/06 09:33:20;;;;;;;5.90;5.40;;;;;;;32.00;95.30;99466.72;104274;1260;69703;-57
2023/07/06 09:35:53;;;;;;;6.60;5.50;;;;;;;32.04;93.31;99469.84;104171;1266;72504;-56
2023/07/06 09:38:24;;;;;;;6.40;5.90;;;;;;;32.06;95.42;99472.11;104114;1260;59885;-58
2023/07/06 09:40:52;;;;;;;6.40;5.60;;;;;;;32.08;96.60;99468.22;104042;1265;59668;-58
2023/07/06 09:43:22;;;;;;;11.60;6.00;;;;;;;32.12;96.32;99468.52;103944;1267;73359;-56
2023/07/06 09:45:51;;;;;;;6.30;5.70;;;;;;;32.18;93.62;99471.02;103931;1261;69406;-57
2023/07/06 09:48:29;;;;;;;7.40;5.50;;;;;;;32.28;89.91;99468.41;104075;1282;72936;-58
2023/07/06 09:51:00;;;;;;;6.60;5.50;;;;;;;32.38;89.58;99466.98;103956;1267;59754;-57
2023/07/06 09:53:48;;;;;;;7.80;5.50;;;;;;;32.44;84.86;99466.11;106536;1260;60110;-59
2023/07/06 09:56:16;;;;;;;6.20;5.80;;;;;;;32.50;85.52;99470.71;104674;1264;72872;-57
2023/07/06 09:58:46;;;;;;;6.70;6.20;;;;;;;32.56;82.15;99467.00;103937;1266;70142;-56
2023/07/06 10:01:36;;;;;;;10.90;5.70;;;;;;;32.64;82.74;99467.74;104107;1267;72352;-58
2023/07/06 10:04:18;;;;;;;5.90;5.40;;;;;;;32.69;77.44;99463.57;104062;1266;60256;-56
2023/07/06 10:07:05;;;;;;;5.10;4.70;;;;;;;32.73;77.59;99464.85;104154;1260;59824;-58
2023/07/06 10:09:56;;;;;;;4.80;4.40;;;;;;;32.70;71.42;99459.93;104243;1260;73237;-57
2023/07/06 10:12:24;;;;;;;4.60;4.20;;;;;;;32.68;69.13;99457.30;103957;1267;69206;-58
2023/07/06 10:14:52;;;;;;;4.70;4.40;;;;;;;32.68;68.84;99459.73;103852;1265;72472;-57
2023/07/06 10:17:38;;;;;;;4.70;4.10;;;;;;;32.68;68.93;99456.76;104023;1260;60797;-59
2023/07/06 10:20:25;;;;;;;4.30;4.00;;;;;;;32.70;61.89;99457.66;104064;1261;59759;-58
2023/07/06 10:23:32;;;;;;;14.30;4.60;;;;;;;32.75;63.68;99457.10;103960;1274;72912;-58
2023/07/06 10:26:26;;;;;;;8.90;3.80;;;;;;;32.77;66.34;99456.34;103636;1279;69248;-60
2023/07/06 10:29:03;;;;;;;4.40;4.10;;;;;;;32.77;64.55;99451.40;103952;1267;72942;-58
2023/07/06 10:31:33;;;;;;;;;;;;;;;32.82;61.60;99449.95;103952;1267;59802;-59
2023/07/06 10:34:15;;;;;;;4.10;3.80;;;;;;;32.83;60.60;99448.61;103986;1260;59772;-59
2023/07/06 10:36:44;;;;;;;4.30;4.00;;;;;;;32.80;59.76;99446.92;103982;1274;72802;-59
2023/07/06 10:39:32;;;;;;;4.00;3.70;;;;;;;32.81;59.84;99447.73;103800;1280;70189;-59
2023/07/06 10:42:04;;;;;;;4.70;3.50;;;;;;;32.83;58.72;99443.66;103860;1270;72518;-59
2023/07/06 10:44:41;;;;;;;7.60;4.10;;;;;;;32.83;58.43;99446.80;104063;1271;59849;-56
2023/07/06 10:47:37;;;;;;;3.70;3.40;;;;;;;32.85;59.11;99445.30;104009;1260;60082;-57
2023/07/06 10:50:05;;;;;;;4.30;3.60;;;;;;;32.86;55.58;99443.78;104074;1260;72841;-57
2023/07/06 10:52:43;;;;;;;4.80;4.10;;;;;;;32.91;58.72;99444.44;104074;1263;69156;-58
2023/07/06 10:55:12;;;;;;;4.00;3.60;;;;;;;32.94;59.44;99441.61;103941;1269;72437;-57
2023/07/06 10:57:43;;;;;;;5.60;3.50;;;;;;;33.01;56.29;99438.33;103903;1261;60226;-57
2023/07/06 11:00:16;;;;;;;4.40;4.10;;;;;;;33.04;55.40;99438.27;105621;1257;59286;-58
2023/07/06 11:02:45;;;;;;;4.20;3.90;;;;;;;33.08;56.01;99432.08;107454;1258;73839;-58
2023/07/06 11:05:28;;;;;;;4.60;4.10;;;;;;;33.15;58.49;99432.36;104095;1261;69146;-59
2023/07/06 11:07:59;;;;;;;4.40;4.00;;;;;;;33.30;58.37;99431.48;104472;1260;72924;-59
2023/07/06 11:10:28;;;;;;;5.60;4.50;;;;;;;33.42;56.83;99428.34;104262;1260;60815;-57
2023/07/06 11:12:57;;;;;;;4.80;4.40;;;;;;;33.50;56.60;99423.92;104019;1263;60084;-58
2023/07/06 11:15:49;;;;;;;6.00;4.50;;;;;;;33.54;56.75;99423.10;103941;1272;72887;-58
2023/07/06 11:18:21;;;;;;;4.60;4.20;;;;;;;33.62;57.48;99415.50;103986;1261;69460;-58
2023/07/06 11:21:03;;;;;;;4.90;4.50;;;;;;;33.69;59.41;99412.84;103828;1267;72336;-58
2023/07/06 11:23:36;;;;;;;5.30;4.30;;;;;;;33.80;60.23;99411.45;103877;1261;59880;-58
2023/07/06 11:26:08;;;;;;;4.30;4.00;;;;;;;33.86;57.23;99407.86;103807;1260;59727;-57
2023/07/06 11:28:36;;;;;;;7.20;4.90;;;;;;;33.89;57.41;99408.67;104002;1258;73010;-57
2023/07/06 11:31:30;;;;;;;5.00;4.50;;;;;;;33.89;57.77;99405.58;104055;1266;69355;-58
2023/07/06 11:34:10;;;;;;;4.60;4.10;;;;;;;33.88;57.12;99402.97;104161;1258;72489;-57
2023/07/06 11:36:55;;;;;;;4.50;4.00;;;;;;;33.92;57.18;99394.23;104015;1262;59975;-57
2023/07/06 11:39:38;;;;;;;4.90;4.10;;;;;;;33.98;53.98;99391.40;104050;1257;59845;-58
2023/07/06 11:42:17;;;;;;;5.10;4.60;;;;;;;34.07;53.72;99385.59;104221;1269;73650;-58
2023/07/06 11:44:50;;;;;;;4.90;4.40;;;;;;;34.16;52.28;99378.58;104142;1269;70770;-58
2023/07/06 11:47:35;;;;;;;5.70;4.40;;;;;;;34.23;52.84;99376.98;104117;1260;71931;-58
2023/07/06 11:50:07;;;;;;;4.70;4.20;;;;;;;34.23;50.53;99371.09;104422;1261;59778;-58
2023/07/06 11:52:37;;;;;;;5.00;4.20;;;;;;;34.25;50.64;99366.89;104213;1261;59739;-57
2023/07/06 11:55:29;;;;;;;6.20;4.20;;;;;;;34.31;51.37;99362.33;104129;1270;73289;-58
2023/07/06 11:58:28;;;;;;;5.60;4.50;;;;;;;34.39;50.56;99358.63;104267;1264;68465;-57
2023/07/06 12:01:01;;;;;;;5.40;3.90;;;;;;;34.45;50.68;99356.11;104356;1260;71704;-57
2023/07/06 12:03:29;;;;;;;6.50;4.40;;;;;;;34.46;48.73;99348.64;104190;1263;59813;-57
2023/07/06 12:05:58;;;;;;;5.10;3.90;;;;;;;34.48;50.40;99349.19;104366;1257;59829;-58
2023/07/06 12:08:35;;;;;;;4.60;4.20;;;;;;;34.55;47.87;99346.21;104361;1257;72815;-58
2023/07/06 12:11:07;;;;;;;6.80;4.50;;;;;;;34.62;47.22;99340.16;104772;1260;69102;-58